sensor_id;sensor_type;location;lat;lon;timestamp;P1;durP1;ratioP1;P2;durP2;ratioP2
37655;SDS011;23498;50.958;3.124;2023-09-30T00:01:41;14.20;;;4.28;;
37655;SDS011;23498;50.958;3.124;2023-09-30T00:04:09;18.35;;;4.88;;
37655;SDS011;23498;50.958;3.124;2023-09-30T00:06:35;17.25;;;5.13;;
37655;SDS011;23498;50.958;3.124;2023-09-30T00:09:01;16.45;;;5.15;;
37655;SDS011;23498;50.958;3.124;2023-09-30T00:11:28;16.52;;;4.72;;
37655;SDS011;23498;50.958;3.124;2023-09-30T00:13:54;13.93;;;4.78;;
37655;SDS011;23498;50.958;3.124;2023-09-30T00:16:20;15.40;;;5.15;;
37655;SDS011;23498;50.958;3.124;2023-09-30T00:18:46;14.15;;;5.18;;
37655;SDS011;23498;50.958;3.124;2023-09-30T00:21:12;18.42;;;4.95;;
37655;SDS011;23498;50.958;3.124;2023-09-30T00:23:40;14.32;;;4.60;;
37655;SDS011;23498;50.958;3.124;2023-09-30T00:26:06;19.30;;;5.80;;
37655;SDS011;23498;50.958;3.124;2023-09-30T00:28:32;18.13;;;4.63;;
37655;SDS011;23498;50.958;3.124;2023-09-30T00:30:58;12.15;;;4.47;;
37655;SDS011;23498;50.958;3.124;2023-09-30T00:33:24;14.25;;;5.05;;
37655;SDS011;23498;50.958;3.124;2023-09-30T00:35:50;15.02;;;4.28;;
37655;SDS011;23498;50.958;3.124;2023-09-30T00:38:16;14.55;;;4.85;;
37655;SDS011;23498;50.958;3.124;2023-09-30T00:40:49;15.52;;;4.93;;
37655;SDS011;23498;50.958;3.124;2023-09-30T00:43:19;16.50;;;5.20;;
37655;SDS011;23498;50.958;3.124;2023-09-30T00:45:45;9.88;;;4.68;;
37655;SDS011;23498;50.958;3.124;2023-09-30T00:48:12;16.55;;;4.88;;
37655;SDS011;23498;50.958;3.124;2023-09-30T00:50:38;16.85;;;4.60;;
37655;SDS011;23498;50.958;3.124;2023-09-30T00:53:05;18.23;;;5.07;;
37655;SDS011;23498;50.958;3.124;2023-09-30T00:55:32;16.17;;;5.43;;
37655;SDS011;23498;50.958;3.124;2023-09-30T00:57:58;19.33;;;5.20;;
37655;SDS011;23498;50.958;3.124;2023-09-30T01:00:24;18.50;;;5.22;;
37655;SDS011;23498;50.958;3.124;2023-09-30T01:02:51;17.85;;;5.22;;
37655;SDS011;23498;50.958;3.124;2023-09-30T01:05:19;14.18;;;5.10;;
37655;SDS011;23498;50.958;3.124;2023-09-30T01:07:45;15.07;;;4.47;;
37655;SDS011;23498;50.958;3.124;2023-09-30T01:10:11;18.17;;;4.95;;
37655;SDS011;23498;50.958;3.124;2023-09-30T01:12:37;17.73;;;5.75;;
37655;SDS011;23498;50.958;3.124;2023-09-30T01:15:03;19.02;;;5.22;;
37655;SDS011;23498;50.958;3.124;2023-09-30T01:17:31;13.73;;;5.20;;
37655;SDS011;23498;50.958;3.124;2023-09-30T01:19:57;18.88;;;5.00;;
37655;SDS011;23498;50.958;3.124;2023-09-30T01:22:28;15.20;;;4.80;;
37655;SDS011;23498;50.958;3.124;2023-09-30T01:24:55;18.15;;;5.38;;
37655;SDS011;23498;50.958;3.124;2023-09-30T01:27:21;18.52;;;5.95;;
37655;SDS011;23498;50.958;3.124;2023-09-30T01:29:47;13.52;;;4.72;;
37655;SDS011;23498;50.958;3.124;2023-09-30T01:32:14;15.60;;;5.00;;
37655;SDS011;23498;50.958;3.124;2023-09-30T01:34:40;12.13;;;4.38;;
37655;SDS011;23498;50.958;3.124;2023-09-30T01:37:06;13.60;;;4.25;;
37655;SDS011;23498;50.958;3.124;2023-09-30T01:39:32;17.45;;;4.60;;
37655;SDS011;23498;50.958;3.124;2023-09-30T01:41:59;20.95;;;5.65;;
37655;SDS011;23498;50.958;3.124;2023-09-30T01:44:25;15.32;;;4.65;;
37655;SDS011;23498;50.958;3.124;2023-09-30T01:46:51;13.35;;;4.63;;
37655;SDS011;23498;50.958;3.124;2023-09-30T01:49:17;17.50;;;5.40;;
37655;SDS011;23498;50.958;3.124;2023-09-30T01:51:43;13.82;;;4.70;;
37655;SDS011;23498;50.958;3.124;2023-09-30T01:54:10;11.65;;;4.50;;
37655;SDS011;23498;50.958;3.124;2023-09-30T01:56:36;11.98;;;4.85;;
37655;SDS011;23498;50.958;3.124;2023-09-30T01:59:02;15.25;;;5.40;;
37655;SDS011;23498;50.958;3.124;2023-09-30T02:01:29;12.35;;;4.45;;
37655;SDS011;23498;50.958;3.124;2023-09-30T02:03:55;12.10;;;4.22;;
37655;SDS011;23498;50.958;3.124;2023-09-30T02:06:21;12.65;;;4.57;;
37655;SDS011;23498;50.958;3.124;2023-09-30T02:08:47;13.85;;;4.55;;
37655;SDS011;23498;50.958;3.124;2023-09-30T02:11:13;11.85;;;4.40;;
37655;SDS011;23498;50.958;3.124;2023-09-30T02:13:39;15.38;;;4.88;;
37655;SDS011;23498;50.958;3.124;2023-09-30T02:16:05;15.60;;;4.20;;
37655;SDS011;23498;50.958;3.124;2023-09-30T02:18:36;11.82;;;4.43;;
37655;SDS011;23498;50.958;3.124;2023-09-30T02:21:02;11.63;;;4.20;;
37655;SDS011;23498;50.958;3.124;2023-09-30T02:23:29;16.23;;;4.32;;
37655;SDS011;23498;50.958;3.124;2023-09-30T02:25:55;14.85;;;4.25;;
37655;SDS011;23498;50.958;3.124;2023-09-30T02:28:21;13.80;;;4.22;;
37655;SDS011;23498;50.958;3.124;2023-09-30T02:30:47;14.23;;;5.05;;
37655;SDS011;23498;50.958;3.124;2023-09-30T02:33:13;19.17;;;5.15;;
37655;SDS011;23498;50.958;3.124;2023-09-30T02:35:43;12.18;;;4.60;;
37655;SDS011;23498;50.958;3.124;2023-09-30T02:38:10;9.77;;;4.22;;
37655;SDS011;23498;50.958;3.124;2023-09-30T02:40:36;13.23;;;3.97;;
37655;SDS011;23498;50.958;3.124;2023-09-30T02:43:03;13.38;;;4.80;;
37655;SDS011;23498;50.958;3.124;2023-09-30T02:45:29;9.80;;;3.92;;
37655;SDS011;23498;50.958;3.124;2023-09-30T02:47:55;13.93;;;4.47;;
37655;SDS011;23498;50.958;3.124;2023-09-30T02:50:21;11.50;;;4.43;;
37655;SDS011;23498;50.958;3.124;2023-09-30T02:52:47;15.70;;;4.45;;
37655;SDS011;23498;50.958;3.124;2023-09-30T02:55:14;13.85;;;4.97;;
37655;SDS011;23498;50.958;3.124;2023-09-30T02:57:41;11.63;;;4.97;;
37655;SDS011;23498;50.958;3.124;2023-09-30T03:00:09;12.23;;;5.18;;
37655;SDS011;23498;50.958;3.124;2023-09-30T03:02:54;11.10;;;4.70;;
37655;SDS011;23498;50.958;3.124;2023-09-30T03:05:21;11.32;;;4.80;;
37655;SDS011;23498;50.958;3.124;2023-09-30T03:07:47;15.38;;;5.15;;
37655;SDS011;23498;50.958;3.124;2023-09-30T03:10:15;11.63;;;5.10;;
37655;SDS011;23498;50.958;3.124;2023-09-30T03:12:55;11.05;;;4.70;;
37655;SDS011;23498;50.958;3.124;2023-09-30T03:15:21;13.32;;;5.75;;
37655;SDS011;23498;50.958;3.124;2023-09-30T03:17:48;14.40;;;5.68;;
37655;SDS011;23498;50.958;3.124;2023-09-30T03:20:14;13.82;;;5.22;;
37655;SDS011;23498;50.958;3.124;2023-09-30T03:22:44;12.30;;;4.50;;
37655;SDS011;23498;50.958;3.124;2023-09-30T03:25:14;14.05;;;4.55;;
37655;SDS011;23498;50.958;3.124;2023-09-30T03:27:42;11.77;;;5.10;;
37655;SDS011;23498;50.958;3.124;2023-09-30T03:30:08;10.98;;;4.97;;
37655;SDS011;23498;50.958;3.124;2023-09-30T03:32:37;12.82;;;5.50;;
37655;SDS011;23498;50.958;3.124;2023-09-30T03:35:04;14.73;;;5.25;;
37655;SDS011;23498;50.958;3.124;2023-09-30T03:37:33;15.02;;;5.43;;
37655;SDS011;23498;50.958;3.124;2023-09-30T03:40:00;17.63;;;6.63;;
37655;SDS011;23498;50.958;3.124;2023-09-30T03:42:36;12.10;;;4.90;;
37655;SDS011;23498;50.958;3.124;2023-09-30T03:45:04;19.23;;;5.95;;
37655;SDS011;23498;50.958;3.124;2023-09-30T03:47:32;10.98;;;5.18;;
37655;SDS011;23498;50.958;3.124;2023-09-30T03:49:58;13.43;;;5.57;;
37655;SDS011;23498;50.958;3.124;2023-09-30T03:52:24;14.85;;;5.47;;
37655;SDS011;23498;50.958;3.124;2023-09-30T03:54:51;14.00;;;5.60;;
37655;SDS011;23498;50.958;3.124;2023-09-30T03:57:18;13.88;;;4.75;;
37655;SDS011;23498;50.958;3.124;2023-09-30T03:59:45;12.80;;;5.57;;
37655;SDS011;23498;50.958;3.124;2023-09-30T04:02:11;12.30;;;5.63;;
37655;SDS011;23498;50.958;3.124;2023-09-30T04:04:39;13.70;;;5.20;;
37655;SDS011;23498;50.958;3.124;2023-09-30T04:07:05;14.93;;;5.43;;
37655;SDS011;23498;50.958;3.124;2023-09-30T04:09:32;12.38;;;5.57;;
37655;SDS011;23498;50.958;3.124;2023-09-30T04:11:58;13.18;;;5.38;;
37655;SDS011;23498;50.958;3.124;2023-09-30T04:14:26;13.45;;;5.00;;
37655;SDS011;23498;50.958;3.124;2023-09-30T04:16:52;16.17;;;5.38;;
37655;SDS011;23498;50.958;3.124;2023-09-30T04:19:19;12.10;;;5.50;;
37655;SDS011;23498;50.958;3.124;2023-09-30T04:21:46;17.35;;;5.97;;
37655;SDS011;23498;50.958;3.124;2023-09-30T04:24:12;16.55;;;6.75;;
37655;SDS011;23498;50.958;3.124;2023-09-30T04:26:38;17.25;;;6.90;;
37655;SDS011;23498;50.958;3.124;2023-09-30T04:29:05;16.60;;;6.25;;
37655;SDS011;23498;50.958;3.124;2023-09-30T04:31:35;15.43;;;5.53;;
37655;SDS011;23498;50.958;3.124;2023-09-30T04:34:03;16.60;;;6.85;;
37655;SDS011;23498;50.958;3.124;2023-09-30T04:36:29;13.25;;;5.97;;
37655;SDS011;23498;50.958;3.124;2023-09-30T04:38:55;16.33;;;5.85;;
37655;SDS011;23498;50.958;3.124;2023-09-30T04:41:22;16.20;;;6.38;;
37655;SDS011;23498;50.958;3.124;2023-09-30T04:43:50;16.52;;;6.00;;
37655;SDS011;23498;50.958;3.124;2023-09-30T04:46:17;13.18;;;5.80;;
37655;SDS011;23498;50.958;3.124;2023-09-30T04:48:45;13.50;;;5.80;;
37655;SDS011;23498;50.958;3.124;2023-09-30T04:51:14;16.45;;;6.22;;
37655;SDS011;23498;50.958;3.124;2023-09-30T04:53:43;13.32;;;6.63;;
37655;SDS011;23498;50.958;3.124;2023-09-30T04:56:11;15.45;;;6.10;;
37655;SDS011;23498;50.958;3.124;2023-09-30T04:58:37;16.55;;;6.22;;
37655;SDS011;23498;50.958;3.124;2023-09-30T05:01:03;17.85;;;6.55;;
37655;SDS011;23498;50.958;3.124;2023-09-30T05:03:29;18.45;;;6.97;;
37655;SDS011;23498;50.958;3.124;2023-09-30T05:05:55;14.25;;;6.13;;
37655;SDS011;23498;50.958;3.124;2023-09-30T05:08:23;15.07;;;5.72;;
37655;SDS011;23498;50.958;3.124;2023-09-30T05:10:49;18.27;;;6.05;;
37655;SDS011;23498;50.958;3.124;2023-09-30T05:13:16;22.90;;;6.80;;
37655;SDS011;23498;50.958;3.124;2023-09-30T05:15:42;21.92;;;6.68;;
37655;SDS011;23498;50.958;3.124;2023-09-30T05:18:08;19.35;;;6.53;;
37655;SDS011;23498;50.958;3.124;2023-09-30T05:20:34;20.23;;;6.88;;
37655;SDS011;23498;50.958;3.124;2023-09-30T05:23:02;15.30;;;7.03;;
37655;SDS011;23498;50.958;3.124;2023-09-30T05:25:28;16.17;;;6.93;;
37655;SDS011;23498;50.958;3.124;2023-09-30T05:27:54;20.38;;;7.30;;
37655;SDS011;23498;50.958;3.124;2023-09-30T05:30:21;19.45;;;7.13;;
37655;SDS011;23498;50.958;3.124;2023-09-30T05:32:47;17.65;;;7.10;;
37655;SDS011;23498;50.958;3.124;2023-09-30T05:35:17;19.13;;;7.28;;
37655;SDS011;23498;50.958;3.124;2023-09-30T05:37:43;20.95;;;8.00;;
37655;SDS011;23498;50.958;3.124;2023-09-30T05:40:12;18.83;;;7.20;;
37655;SDS011;23498;50.958;3.124;2023-09-30T05:42:45;18.90;;;7.20;;
37655;SDS011;23498;50.958;3.124;2023-09-30T05:45:11;19.83;;;8.02;;
37655;SDS011;23498;50.958;3.124;2023-09-30T05:47:38;16.00;;;6.78;;
37655;SDS011;23498;50.958;3.124;2023-09-30T05:50:05;18.33;;;7.25;;
37655;SDS011;23498;50.958;3.124;2023-09-30T05:52:32;19.55;;;8.27;;
37655;SDS011;23498;50.958;3.124;2023-09-30T05:54:58;18.98;;;8.43;;
37655;SDS011;23498;50.958;3.124;2023-09-30T05:57:27;19.05;;;7.85;;
37655;SDS011;23498;50.958;3.124;2023-09-30T05:59:53;21.27;;;8.73;;
37655;SDS011;23498;50.958;3.124;2023-09-30T06:02:20;24.88;;;8.35;;
37655;SDS011;23498;50.958;3.124;2023-09-30T06:04:46;23.17;;;8.70;;
37655;SDS011;23498;50.958;3.124;2023-09-30T06:07:12;19.90;;;8.40;;
37655;SDS011;23498;50.958;3.124;2023-09-30T06:09:38;23.40;;;9.15;;
37655;SDS011;23498;50.958;3.124;2023-09-30T06:12:04;18.85;;;8.07;;
37655;SDS011;23498;50.958;3.124;2023-09-30T06:14:32;23.00;;;8.65;;
37655;SDS011;23498;50.958;3.124;2023-09-30T06:16:58;18.13;;;8.18;;
37655;SDS011;23498;50.958;3.124;2023-09-30T06:19:24;16.70;;;7.93;;
37655;SDS011;23498;50.958;3.124;2023-09-30T06:21:51;19.67;;;8.07;;
37655;SDS011;23498;50.958;3.124;2023-09-30T06:24:17;18.35;;;7.97;;
37655;SDS011;23498;50.958;3.124;2023-09-30T06:26:46;19.73;;;8.70;;
37655;SDS011;23498;50.958;3.124;2023-09-30T06:29:16;20.05;;;8.43;;
37655;SDS011;23498;50.958;3.124;2023-09-30T06:31:42;19.45;;;8.40;;
37655;SDS011;23498;50.958;3.124;2023-09-30T06:34:08;16.60;;;8.23;;
37655;SDS011;23498;50.958;3.124;2023-09-30T06:36:36;17.02;;;8.20;;
37655;SDS011;23498;50.958;3.124;2023-09-30T06:39:05;20.60;;;8.35;;
37655;SDS011;23498;50.958;3.124;2023-09-30T06:41:32;19.48;;;8.40;;
37655;SDS011;23498;50.958;3.124;2023-09-30T06:43:58;18.85;;;8.30;;
37655;SDS011;23498;50.958;3.124;2023-09-30T06:46:24;20.10;;;7.90;;
37655;SDS011;23498;50.958;3.124;2023-09-30T06:48:50;22.98;;;8.18;;
37655;SDS011;23498;50.958;3.124;2023-09-30T06:51:17;19.55;;;8.68;;
37655;SDS011;23498;50.958;3.124;2023-09-30T06:53:43;19.10;;;8.90;;
37655;SDS011;23498;50.958;3.124;2023-09-30T06:56:10;19.83;;;8.82;;
37655;SDS011;23498;50.958;3.124;2023-09-30T06:58:38;21.58;;;9.27;;
37655;SDS011;23498;50.958;3.124;2023-09-30T07:01:03;17.40;;;8.77;;
37655;SDS011;23498;50.958;3.124;2023-09-30T07:03:29;23.83;;;9.10;;
37655;SDS011;23498;50.958;3.124;2023-09-30T07:05:57;18.67;;;8.98;;
37655;SDS011;23498;50.958;3.124;2023-09-30T07:08:26;23.80;;;9.55;;
37655;SDS011;23498;50.958;3.124;2023-09-30T07:10:53;20.45;;;9.20;;
37655;SDS011;23498;50.958;3.124;2023-09-30T07:13:19;21.90;;;9.27;;
37655;SDS011;23498;50.958;3.124;2023-09-30T07:15:45;19.40;;;9.95;;
37655;SDS011;23498;50.958;3.124;2023-09-30T07:18:11;20.48;;;9.68;;
37655;SDS011;23498;50.958;3.124;2023-09-30T07:20:37;22.73;;;9.95;;
37655;SDS011;23498;50.958;3.124;2023-09-30T07:23:03;18.42;;;9.68;;
37655;SDS011;23498;50.958;3.124;2023-09-30T07:25:30;21.08;;;9.75;;
37655;SDS011;23498;50.958;3.124;2023-09-30T07:27:57;19.98;;;9.25;;
37655;SDS011;23498;50.958;3.124;2023-09-30T07:30:23;17.08;;;9.00;;
37655;SDS011;23498;50.958;3.124;2023-09-30T07:32:49;19.35;;;10.13;;
37655;SDS011;23498;50.958;3.124;2023-09-30T07:35:15;19.48;;;9.63;;
37655;SDS011;23498;50.958;3.124;2023-09-30T07:37:42;16.00;;;9.10;;
37655;SDS011;23498;50.958;3.124;2023-09-30T07:40:10;17.85;;;8.70;;
37655;SDS011;23498;50.958;3.124;2023-09-30T07:42:36;15.80;;;9.35;;
37655;SDS011;23498;50.958;3.124;2023-09-30T07:45:02;18.75;;;9.25;;
37655;SDS011;23498;50.958;3.124;2023-09-30T07:47:29;23.70;;;11.07;;
37655;SDS011;23498;50.958;3.124;2023-09-30T07:49:59;19.67;;;11.10;;
37655;SDS011;23498;50.958;3.124;2023-09-30T07:52:27;22.70;;;11.60;;
37655;SDS011;23498;50.958;3.124;2023-09-30T07:54:53;26.77;;;12.13;;
37655;SDS011;23498;50.958;3.124;2023-09-30T07:57:19;27.45;;;13.43;;
37655;SDS011;23498;50.958;3.124;2023-09-30T07:59:45;27.23;;;13.55;;
37655;SDS011;23498;50.958;3.124;2023-09-30T08:02:11;24.27;;;11.43;;
37655;SDS011;23498;50.958;3.124;2023-09-30T08:04:37;29.42;;;13.30;;
37655;SDS011;23498;50.958;3.124;2023-09-30T08:07:03;29.55;;;13.15;;
37655;SDS011;23498;50.958;3.124;2023-09-30T08:09:29;27.58;;;12.63;;
37655;SDS011;23498;50.958;3.124;2023-09-30T08:11:55;28.13;;;14.43;;
37655;SDS011;23498;50.958;3.124;2023-09-30T08:14:22;28.23;;;14.48;;
37655;SDS011;23498;50.958;3.124;2023-09-30T08:16:48;31.52;;;14.93;;
37655;SDS011;23498;50.958;3.124;2023-09-30T08:19:14;28.08;;;15.13;;
37655;SDS011;23498;50.958;3.124;2023-09-30T08:21:40;28.75;;;14.90;;
37655;SDS011;23498;50.958;3.124;2023-09-30T08:24:06;25.80;;;15.45;;
37655;SDS011;23498;50.958;3.124;2023-09-30T08:26:33;24.17;;;15.13;;
37655;SDS011;23498;50.958;3.124;2023-09-30T08:29:00;31.65;;;15.77;;
37655;SDS011;23498;50.958;3.124;2023-09-30T08:31:27;30.92;;;15.60;;
37655;SDS011;23498;50.958;3.124;2023-09-30T08:33:54;24.60;;;14.15;;
37655;SDS011;23498;50.958;3.124;2023-09-30T08:36:20;24.55;;;14.02;;
37655;SDS011;23498;50.958;3.124;2023-09-30T08:38:46;24.08;;;14.25;;
37655;SDS011;23498;50.958;3.124;2023-09-30T08:41:14;28.13;;;14.30;;
37655;SDS011;23498;50.958;3.124;2023-09-30T08:43:51;23.75;;;12.38;;
37655;SDS011;23498;50.958;3.124;2023-09-30T08:46:18;26.65;;;12.38;;
37655;SDS011;23498;50.958;3.124;2023-09-30T08:48:44;20.67;;;12.20;;
37655;SDS011;23498;50.958;3.124;2023-09-30T08:51:12;19.63;;;10.30;;
37655;SDS011;23498;50.958;3.124;2023-09-30T08:53:38;23.45;;;11.32;;
37655;SDS011;23498;50.958;3.124;2023-09-30T08:56:05;22.17;;;10.35;;
37655;SDS011;23498;50.958;3.124;2023-09-30T08:58:34;20.75;;;9.77;;
37655;SDS011;23498;50.958;3.124;2023-09-30T09:01:01;22.48;;;9.27;;
37655;SDS011;23498;50.958;3.124;2023-09-30T09:03:27;21.15;;;10.43;;
37655;SDS011;23498;50.958;3.124;2023-09-30T09:05:57;20.83;;;10.50;;
37655;SDS011;23498;50.958;3.124;2023-09-30T09:08:25;22.45;;;9.40;;
37655;SDS011;23498;50.958;3.124;2023-09-30T09:10:58;21.55;;;10.18;;
37655;SDS011;23498;50.958;3.124;2023-09-30T09:13:24;22.75;;;9.57;;
37655;SDS011;23498;50.958;3.124;2023-09-30T09:16:05;19.80;;;9.85;;
37655;SDS011;23498;50.958;3.124;2023-09-30T09:18:32;15.98;;;9.73;;
37655;SDS011;23498;50.958;3.124;2023-09-30T09:21:11;21.88;;;9.73;;
37655;SDS011;23498;50.958;3.124;2023-09-30T09:23:41;19.55;;;8.70;;
37655;SDS011;23498;50.958;3.124;2023-09-30T09:26:08;16.58;;;8.07;;
37655;SDS011;23498;50.958;3.124;2023-09-30T09:28:35;14.48;;;7.43;;
37655;SDS011;23498;50.958;3.124;2023-09-30T09:31:04;18.52;;;7.70;;
37655;SDS011;23498;50.958;3.124;2023-09-30T09:33:44;21.33;;;8.35;;
37655;SDS011;23498;50.958;3.124;2023-09-30T09:36:10;19.33;;;7.28;;
37655;SDS011;23498;50.958;3.124;2023-09-30T09:38:43;14.82;;;6.05;;
37655;SDS011;23498;50.958;3.124;2023-09-30T09:41:09;19.05;;;7.70;;
37655;SDS011;23498;50.958;3.124;2023-09-30T09:43:36;17.88;;;7.20;;
37655;SDS011;23498;50.958;3.124;2023-09-30T09:46:07;14.40;;;6.10;;
37655;SDS011;23498;50.958;3.124;2023-09-30T09:48:36;15.98;;;6.65;;
37655;SDS011;23498;50.958;3.124;2023-09-30T09:51:03;18.15;;;7.30;;
37655;SDS011;23498;50.958;3.124;2023-09-30T09:53:34;17.48;;;6.95;;
37655;SDS011;23498;50.958;3.124;2023-09-30T09:56:01;21.52;;;6.35;;
37655;SDS011;23498;50.958;3.124;2023-09-30T09:58:28;13.95;;;5.40;;
37655;SDS011;23498;50.958;3.124;2023-09-30T10:00:58;15.75;;;7.40;;
37655;SDS011;23498;50.958;3.124;2023-09-30T10:03:25;13.52;;;5.63;;
37655;SDS011;23498;50.958;3.124;2023-09-30T10:05:52;17.95;;;6.20;;
37655;SDS011;23498;50.958;3.124;2023-09-30T10:08:18;15.43;;;6.40;;
37655;SDS011;23498;50.958;3.124;2023-09-30T10:10:46;17.15;;;6.75;;
37655;SDS011;23498;50.958;3.124;2023-09-30T10:15:57;20.05;;;6.78;;
37655;SDS011;23498;50.958;3.124;2023-09-30T10:18:23;13.30;;;6.85;;
37655;SDS011;23498;50.958;3.124;2023-09-30T10:20:49;16.08;;;8.13;;
37655;SDS011;23498;50.958;3.124;2023-09-30T10:25:45;20.27;;;7.07;;
37655;SDS011;23498;50.958;3.124;2023-09-30T10:31:18;19.27;;;6.85;;
37655;SDS011;23498;50.958;3.124;2023-09-30T10:36:33;17.23;;;6.57;;
37655;SDS011;23498;50.958;3.124;2023-09-30T10:38:59;21.30;;;5.88;;
37655;SDS011;23498;50.958;3.124;2023-09-30T10:44:52;11.82;;;5.25;;
37655;SDS011;23498;50.958;3.124;2023-09-30T10:46:58;14.90;;;5.30;;
37655;SDS011;23498;50.958;3.124;2023-09-30T10:51:57;13.75;;;3.47;;
37655;SDS011;23498;50.958;3.124;2023-09-30T10:54:26;8.73;;;2.92;;
37655;SDS011;23498;50.958;3.124;2023-09-30T10:56:52;9.07;;;3.33;;
37655;SDS011;23498;50.958;3.124;2023-09-30T10:59:27;11.80;;;3.70;;
37655;SDS011;23498;50.958;3.124;2023-09-30T11:01:57;12.18;;;3.17;;
37655;SDS011;23498;50.958;3.124;2023-09-30T11:04:23;13.82;;;3.00;;
37655;SDS011;23498;50.958;3.124;2023-09-30T11:06:52;10.48;;;3.08;;
37655;SDS011;23498;50.958;3.124;2023-09-30T11:09:22;7.85;;;2.47;;
37655;SDS011;23498;50.958;3.124;2023-09-30T11:16:43;10.82;;;2.80;;
37655;SDS011;23498;50.958;3.124;2023-09-30T11:19:10;12.20;;;2.28;;
37655;SDS011;23498;50.958;3.124;2023-09-30T11:21:36;8.10;;;2.10;;
37655;SDS011;23498;50.958;3.124;2023-09-30T11:24:02;11.23;;;2.45;;
37655;SDS011;23498;50.958;3.124;2023-09-30T11:26:29;7.88;;;2.10;;
37655;SDS011;23498;50.958;3.124;2023-09-30T11:29:08;8.32;;;2.00;;
37655;SDS011;23498;50.958;3.124;2023-09-30T11:31:39;8.05;;;1.90;;
37655;SDS011;23498;50.958;3.124;2023-09-30T11:34:06;8.02;;;2.20;;
37655;SDS011;23498;50.958;3.124;2023-09-30T11:36:36;11.27;;;2.67;;
37655;SDS011;23498;50.958;3.124;2023-09-30T11:39:03;7.32;;;1.90;;
37655;SDS011;23498;50.958;3.124;2023-09-30T11:41:36;6.88;;;2.15;;
37655;SDS011;23498;50.958;3.124;2023-09-30T11:49:24;8.80;;;1.90;;
37655;SDS011;23498;50.958;3.124;2023-09-30T11:51:50;7.10;;;1.88;;
37655;SDS011;23498;50.958;3.124;2023-09-30T11:54:16;8.50;;;1.80;;
37655;SDS011;23498;50.958;3.124;2023-09-30T11:56:42;10.27;;;2.30;;
37655;SDS011;23498;50.958;3.124;2023-09-30T11:59:08;9.15;;;2.10;;
37655;SDS011;23498;50.958;3.124;2023-09-30T12:01:36;8.90;;;1.73;;
37655;SDS011;23498;50.958;3.124;2023-09-30T12:04:02;7.57;;;1.60;;
37655;SDS011;23498;50.958;3.124;2023-09-30T12:06:28;7.45;;;2.40;;
37655;SDS011;23498;50.958;3.124;2023-09-30T12:08:54;9.55;;;1.75;;
37655;SDS011;23498;50.958;3.124;2023-09-30T12:11:20;7.93;;;2.08;;
37655;SDS011;23498;50.958;3.124;2023-09-30T12:13:48;7.90;;;2.10;;
37655;SDS011;23498;50.958;3.124;2023-09-30T12:16:15;9.02;;;1.90;;
37655;SDS011;23498;50.958;3.124;2023-09-30T12:18:41;8.18;;;1.77;;
37655;SDS011;23498;50.958;3.124;2023-09-30T12:21:10;8.95;;;2.30;;
37655;SDS011;23498;50.958;3.124;2023-09-30T12:23:38;7.63;;;2.13;;
37655;SDS011;23498;50.958;3.124;2023-09-30T12:26:04;9.82;;;1.98;;
37655;SDS011;23498;50.958;3.124;2023-09-30T12:28:34;8.23;;;2.10;;
37655;SDS011;23498;50.958;3.124;2023-09-30T12:31:00;7.00;;;2.00;;
37655;SDS011;23498;50.958;3.124;2023-09-30T12:33:28;6.65;;;2.15;;
37655;SDS011;23498;50.958;3.124;2023-09-30T12:35:55;9.73;;;2.30;;
37655;SDS011;23498;50.958;3.124;2023-09-30T12:38:22;7.88;;;1.70;;
37655;SDS011;23498;50.958;3.124;2023-09-30T12:40:48;5.95;;;1.80;;
37655;SDS011;23498;50.958;3.124;2023-09-30T12:43:14;8.30;;;1.73;;
37655;SDS011;23498;50.958;3.124;2023-09-30T12:45:40;6.75;;;1.90;;
37655;SDS011;23498;50.958;3.124;2023-09-30T12:48:06;8.30;;;1.90;;
37655;SDS011;23498;50.958;3.124;2023-09-30T12:50:32;8.85;;;2.08;;
37655;SDS011;23498;50.958;3.124;2023-09-30T12:52:58;8.88;;;2.00;;
37655;SDS011;23498;50.958;3.124;2023-09-30T12:55:24;8.30;;;2.00;;
37655;SDS011;23498;50.958;3.124;2023-09-30T12:57:52;10.63;;;1.90;;
37655;SDS011;23498;50.958;3.124;2023-09-30T13:00:18;6.40;;;1.80;;
37655;SDS011;23498;50.958;3.124;2023-09-30T13:02:46;9.32;;;2.20;;
37655;SDS011;23498;50.958;3.124;2023-09-30T13:05:13;5.65;;;1.90;;
37655;SDS011;23498;50.958;3.124;2023-09-30T13:07:41;8.88;;;1.90;;
37655;SDS011;23498;50.958;3.124;2023-09-30T13:10:07;7.05;;;1.70;;
37655;SDS011;23498;50.958;3.124;2023-09-30T13:12:34;7.25;;;2.00;;
37655;SDS011;23498;50.958;3.124;2023-09-30T13:15:00;8.60;;;2.10;;
37655;SDS011;23498;50.958;3.124;2023-09-30T13:17:26;8.05;;;1.90;;
37655;SDS011;23498;50.958;3.124;2023-09-30T13:19:53;6.00;;;1.65;;
37655;SDS011;23498;50.958;3.124;2023-09-30T13:22:19;7.32;;;1.63;;
37655;SDS011;23498;50.958;3.124;2023-09-30T13:24:46;6.78;;;1.75;;
37655;SDS011;23498;50.958;3.124;2023-09-30T13:27:12;8.00;;;2.03;;
37655;SDS011;23498;50.958;3.124;2023-09-30T13:29:40;7.22;;;1.60;;
37655;SDS011;23498;50.958;3.124;2023-09-30T13:32:08;5.45;;;1.40;;
37655;SDS011;23498;50.958;3.124;2023-09-30T13:34:35;8.20;;;1.75;;
37655;SDS011;23498;50.958;3.124;2023-09-30T13:37:01;7.20;;;1.77;;
37655;SDS011;23498;50.958;3.124;2023-09-30T13:39:27;8.70;;;1.88;;
37655;SDS011;23498;50.958;3.124;2023-09-30T13:41:54;7.95;;;1.85;;
37655;SDS011;23498;50.958;3.124;2023-09-30T13:44:20;8.18;;;2.00;;
37655;SDS011;23498;50.958;3.124;2023-09-30T13:46:46;10.57;;;2.08;;
37655;SDS011;23498;50.958;3.124;2023-09-30T13:49:13;7.60;;;1.60;;
37655;SDS011;23498;50.958;3.124;2023-09-30T13:51:39;6.38;;;1.92;;
37655;SDS011;23498;50.958;3.124;2023-09-30T13:54:05;7.10;;;2.22;;
37655;SDS011;23498;50.958;3.124;2023-09-30T13:56:34;8.82;;;1.88;;
37655;SDS011;23498;50.958;3.124;2023-09-30T13:59:00;8.98;;;1.73;;
37655;SDS011;23498;50.958;3.124;2023-09-30T14:01:26;9.18;;;2.25;;
37655;SDS011;23498;50.958;3.124;2023-09-30T14:03:52;9.40;;;2.53;;
37655;SDS011;23498;50.958;3.124;2023-09-30T14:06:20;8.55;;;2.05;;
37655;SDS011;23498;50.958;3.124;2023-09-30T14:08:47;9.35;;;2.13;;
37655;SDS011;23498;50.958;3.124;2023-09-30T14:11:13;10.15;;;2.13;;
37655;SDS011;23498;50.958;3.124;2023-09-30T14:13:41;10.60;;;2.30;;
37655;SDS011;23498;50.958;3.124;2023-09-30T14:16:08;9.25;;;2.05;;
37655;SDS011;23498;50.958;3.124;2023-09-30T14:18:34;10.63;;;1.95;;
37655;SDS011;23498;50.958;3.124;2023-09-30T14:21:01;8.15;;;2.17;;
37655;SDS011;23498;50.958;3.124;2023-09-30T14:23:30;7.63;;;2.40;;
37655;SDS011;23498;50.958;3.124;2023-09-30T14:25:56;11.52;;;2.40;;
37655;SDS011;23498;50.958;3.124;2023-09-30T14:28:22;7.43;;;2.17;;
37655;SDS011;23498;50.958;3.124;2023-09-30T14:30:48;9.48;;;2.15;;
37655;SDS011;23498;50.958;3.124;2023-09-30T14:33:18;11.63;;;2.58;;
37655;SDS011;23498;50.958;3.124;2023-09-30T14:35:47;12.63;;;2.72;;
37655;SDS011;23498;50.958;3.124;2023-09-30T14:38:13;7.60;;;1.83;;
37655;SDS011;23498;50.958;3.124;2023-09-30T14:40:39;9.65;;;2.20;;
37655;SDS011;23498;50.958;3.124;2023-09-30T14:43:06;7.15;;;2.47;;
37655;SDS011;23498;50.958;3.124;2023-09-30T14:45:36;9.07;;;2.35;;
37655;SDS011;23498;50.958;3.124;2023-09-30T14:48:03;8.27;;;1.90;;
37655;SDS011;23498;50.958;3.124;2023-09-30T14:50:29;8.30;;;2.22;;
37655;SDS011;23498;50.958;3.124;2023-09-30T14:52:55;8.48;;;2.28;;
37655;SDS011;23498;50.958;3.124;2023-09-30T14:55:21;11.20;;;2.70;;
37655;SDS011;23498;50.958;3.124;2023-09-30T14:57:47;11.45;;;2.50;;
37655;SDS011;23498;50.958;3.124;2023-09-30T15:00:14;11.85;;;2.83;;
37655;SDS011;23498;50.958;3.124;2023-09-30T15:02:40;8.50;;;2.78;;